sensor_id;sensor_type;location;lat;lon;timestamp;temperature;humidity
909;DHT22;441;51.192;6.788;2023-02-02T00:01:14;20.00;45.80
909;DHT22;441;51.192;6.788;2023-02-02T00:03:40;20.00;45.90
909;DHT22;441;51.192;6.788;2023-02-02T00:06:07;20.00;45.90
909;DHT22;441;51.192;6.788;2023-02-02T00:08:35;20.00;46.50
909;DHT22;441;51.192;6.788;2023-02-02T00:11:04;20.00;45.90
909;DHT22;441;51.192;6.788;2023-02-02T00:13:32;20.00;46.00
909;DHT22;441;51.192;6.788;2023-02-02T00:16:17;20.00;46.00
909;DHT22;441;51.192;6.788;2023-02-02T00:18:43;19.90;45.90
909;DHT22;441;51.192;6.788;2023-02-02T00:21:10;20.00;46.00
909;DHT22;441;51.192;6.788;2023-02-02T00:23:38;19.90;45.90
909;DHT22;441;51.192;6.788;2023-02-02T00:26:05;19.90;45.90
909;DHT22;441;51.192;6.788;2023-02-02T00:28:32;19.90;45.90
909;DHT22;441;51.192;6.788;2023-02-02T00:30:59;19.90;46.00
909;DHT22;441;51.192;6.788;2023-02-02T00:33:26;19.90;46.00
909;DHT22;441;51.192;6.788;2023-02-02T00:35:53;19.90;46.00
909;DHT22;441;51.192;6.788;2023-02-02T00:38:19;19.90;46.00
909;DHT22;441;51.192;6.788;2023-02-02T00:40:48;19.90;46.10
909;DHT22;441;51.192;6.788;2023-02-02T00:43:14;19.90;46.10
909;DHT22;441;51.192;6.788;2023-02-02T00:45:41;19.90;46.10
909;DHT22;441;51.192;6.788;2023-02-02T00:48:07;19.90;46.10
909;DHT22;441;51.192;6.788;2023-02-02T00:50:35;19.90;46.10
909;DHT22;441;51.192;6.788;2023-02-02T00:53:02;19.90;46.10
909;DHT22;441;51.192;6.788;2023-02-02T00:55:29;19.90;46.10
909;DHT22;441;51.192;6.788;2023-02-02T00:57:57;19.90;46.20
909;DHT22;441;51.192;6.788;2023-02-02T01:00:25;19.90;46.20
909;DHT22;441;51.192;6.788;2023-02-02T01:02:53;19.90;46.20
909;DHT22;441;51.192;6.788;2023-02-02T01:05:20;19.90;46.20
909;DHT22;441;51.192;6.788;2023-02-02T01:07:47;19.90;46.20
909;DHT22;441;51.192;6.788;2023-02-02T01:10:15;19.90;46.20
909;DHT22;441;51.192;6.788;2023-02-02T01:12:43;19.90;46.30
909;DHT22;441;51.192;6.788;2023-02-02T01:15:12;19.90;46.30
909;DHT22;441;51.192;6.788;2023-02-02T01:17:39;19.90;46.30
909;DHT22;441;51.192;6.788;2023-02-02T01:20:07;19.90;46.30
909;DHT22;441;51.192;6.788;2023-02-02T01:22:34;19.90;46.40
909;DHT22;441;51.192;6.788;2023-02-02T01:25:03;19.90;46.50
909;DHT22;441;51.192;6.788;2023-02-02T01:27:30;19.90;46.50
909;DHT22;441;51.192;6.788;2023-02-02T01:29:57;19.90;46.50
909;DHT22;441;51.192;6.788;2023-02-02T01:32:25;19.90;46.50
909;DHT22;441;51.192;6.788;2023-02-02T01:34:52;19.90;46.50
909;DHT22;441;51.192;6.788;2023-02-02T01:37:19;19.90;46.50
909;DHT22;441;51.192;6.788;2023-02-02T01:39:46;19.90;46.50
909;DHT22;441;51.192;6.788;2023-02-02T01:42:17;19.90;46.50
909;DHT22;441;51.192;6.788;2023-02-02T01:45:12;19.90;46.50
909;DHT22;441;51.192;6.788;2023-02-02T01:47:44;19.90;46.50
909;DHT22;441;51.192;6.788;2023-02-02T01:50:14;19.80;46.50
909;DHT22;441;51.192;6.788;2023-02-02T01:52:44;19.80;46.50
909;DHT22;441;51.192;6.788;2023-02-02T01:55:15;19.80;46.50
909;DHT22;441;51.192;6.788;2023-02-02T01:57:45;19.80;46.60
909;DHT22;441;51.192;6.788;2023-02-02T02:00:15;19.80;46.60
909;DHT22;441;51.192;6.788;2023-02-02T02:02:45;19.80;46.60
909;DHT22;441;51.192;6.788;2023-02-02T02:05:17;19.80;46.70
909;DHT22;441;51.192;6.788;2023-02-02T02:07:46;19.80;46.70
909;DHT22;441;51.192;6.788;2023-02-02T02:10:15;19.80;46.70
909;DHT22;441;51.192;6.788;2023-02-02T02:12:42;19.80;46.70
909;DHT22;441;51.192;6.788;2023-02-02T02:15:10;19.90;46.70
909;DHT22;441;51.192;6.788;2023-02-02T02:18:09;19.90;46.80
909;DHT22;441;51.192;6.788;2023-02-02T02:24:29;19.80;46.70
909;DHT22;441;51.192;6.788;2023-02-02T02:27:38;19.80;46.70
909;DHT22;441;51.192;6.788;2023-02-02T02:30:33;19.80;46.80
909;DHT22;441;51.192;6.788;2023-02-02T02:33:03;19.80;46.80
909;DHT22;441;51.192;6.788;2023-02-02T02:35:34;19.80;46.90
909;DHT22;441;51.192;6.788;2023-02-02T02:38:09;19.80;46.90
909;DHT22;441;51.192;6.788;2023-02-02T02:40:40;19.80;47.00
909;DHT22;441;51.192;6.788;2023-02-02T02:43:11;19.80;47.00
909;DHT22;441;51.192;6.788;2023-02-02T02:45:40;19.80;47.10
909;DHT22;441;51.192;6.788;2023-02-02T02:48:10;19.80;47.10
909;DHT22;441;51.192;6.788;2023-02-02T02:50:37;19.80;47.10
909;DHT22;441;51.192;6.788;2023-02-02T02:53:07;19.80;47.10
909;DHT22;441;51.192;6.788;2023-02-02T02:55:51;19.80;47.10
909;DHT22;441;51.192;6.788;2023-02-02T02:58:22;19.80;47.10
909;DHT22;441;51.192;6.788;2023-02-02T03:01:01;19.80;47.10
909;DHT22;441;51.192;6.788;2023-02-02T03:03:40;19.80;47.10
909;DHT22;441;51.192;6.788;2023-02-02T03:06:15;19.80;47.10
909;DHT22;441;51.192;6.788;2023-02-02T03:08:49;19.80;47.10
909;DHT22;441;51.192;6.788;2023-02-02T03:11:17;19.80;47.10
909;DHT22;441;51.192;6.788;2023-02-02T03:13:45;19.80;47.10
909;DHT22;441;51.192;6.788;2023-02-02T03:16:14;19.80;47.10
909;DHT22;441;51.192;6.788;2023-02-02T03:18:43;19.80;47.20
909;DHT22;441;51.192;6.788;2023-02-02T03:21:10;19.70;47.10
909;DHT22;441;51.192;6.788;2023-02-02T03:23:37;19.80;47.20
909;DHT22;441;51.192;6.788;2023-02-02T03:26:05;19.80;47.20
909;DHT22;441;51.192;6.788;2023-02-02T03:28:32;19.80;47.20
909;DHT22;441;51.192;6.788;2023-02-02T03:30:59;19.80;47.20
909;DHT22;441;51.192;6.788;2023-02-02T03:33:27;19.80;47.30
909;DHT22;441;51.192;6.788;2023-02-02T03:35:55;19.80;47.30
909;DHT22;441;51.192;6.788;2023-02-02T03:38:22;19.80;47.30
909;DHT22;441;51.192;6.788;2023-02-02T03:40:50;19.80;47.30
909;DHT22;441;51.192;6.788;2023-02-02T03:43:19;19.80;47.30
909;DHT22;441;51.192;6.788;2023-02-02T03:45:46;19.80;47.30
909;DHT22;441;51.192;6.788;2023-02-02T03:48:13;19.80;47.30
909;DHT22;441;51.192;6.788;2023-02-02T03:50:40;19.80;47.30
909;DHT22;441;51.192;6.788;2023-02-02T03:53:08;19.80;47.30
909;DHT22;441;51.192;6.788;2023-02-02T03:55:35;19.80;47.40
909;DHT22;441;51.192;6.788;2023-02-02T03:58:03;19.80;47.50
909;DHT22;441;51.192;6.788;2023-02-02T04:00:30;19.80;47.50
909;DHT22;441;51.192;6.788;2023-02-02T04:02:57;19.80;47.40
909;DHT22;441;51.192;6.788;2023-02-02T04:05:24;19.80;47.40
909;DHT22;441;51.192;6.788;2023-02-02T04:07:51;19.80;47.40
909;DHT22;441;51.192;6.788;2023-02-02T04:10:19;19.80;47.50
909;DHT22;441;51.192;6.788;2023-02-02T04:12:46;19.80;47.50
909;DHT22;441;51.192;6.788;2023-02-02T04:15:13;19.80;47.40
909;DHT22;441;51.192;6.788;2023-02-02T04:17:40;19.80;47.50
909;DHT22;441;51.192;6.788;2023-02-02T04:20:07;19.80;47.50
909;DHT22;441;51.192;6.788;2023-02-02T04:22:34;19.80;47.50
909;DHT22;441;51.192;6.788;2023-02-02T04:25:01;19.90;47.60
909;DHT22;441;51.192;6.788;2023-02-02T04:27:29;19.90;47.60
909;DHT22;441;51.192;6.788;2023-02-02T04:29:58;19.80;47.60
909;DHT22;441;51.192;6.788;2023-02-02T04:32:25;19.90;47.60
909;DHT22;441;51.192;6.788;2023-02-02T04:34:52;19.90;47.70
909;DHT22;441;51.192;6.788;2023-02-02T04:37:18;19.90;47.60
909;DHT22;441;51.192;6.788;2023-02-02T04:39:46;19.90;47.70
909;DHT22;441;51.192;6.788;2023-02-02T04:42:13;19.90;47.60
909;DHT22;441;51.192;6.788;2023-02-02T04:44:41;19.90;47.70
909;DHT22;441;51.192;6.788;2023-02-02T04:47:10;19.90;47.70
909;DHT22;441;51.192;6.788;2023-02-02T04:49:37;19.90;47.70
909;DHT22;441;51.192;6.788;2023-02-02T04:52:04;19.90;47.70
909;DHT22;441;51.192;6.788;2023-02-02T04:54:31;19.90;47.70
909;DHT22;441;51.192;6.788;2023-02-02T04:56:58;20.00;47.70
909;DHT22;441;51.192;6.788;2023-02-02T04:59:27;20.00;47.80
909;DHT22;441;51.192;6.788;2023-02-02T05:01:55;20.00;47.70
909;DHT22;441;51.192;6.788;2023-02-02T05:04:22;20.00;47.70
909;DHT22;441;51.192;6.788;2023-02-02T05:06:49;20.00;47.70
909;DHT22;441;51.192;6.788;2023-02-02T05:09:15;20.00;47.80
909;DHT22;441;51.192;6.788;2023-02-02T05:11:42;20.00;47.80
909;DHT22;441;51.192;6.788;2023-02-02T05:14:09;20.00;47.70
909;DHT22;441;51.192;6.788;2023-02-02T05:16:36;20.00;47.70
909;DHT22;441;51.192;6.788;2023-02-02T05:19:05;20.00;47.80
909;DHT22;441;51.192;6.788;2023-02-02T05:21:32;20.00;47.80
909;DHT22;441;51.192;6.788;2023-02-02T05:23:59;20.00;47.80
909;DHT22;441;51.192;6.788;2023-02-02T05:26:27;20.00;47.90
909;DHT22;441;51.192;6.788;2023-02-02T05:28:54;19.90;47.80
909;DHT22;441;51.192;6.788;2023-02-02T05:31:21;19.90;48.00
909;DHT22;441;51.192;6.788;2023-02-02T05:33:48;19.90;47.90
909;DHT22;441;51.192;6.788;2023-02-02T05:36:16;20.00;48.50
909;DHT22;441;51.192;6.788;2023-02-02T05:38:43;20.00;48.00
909;DHT22;441;51.192;6.788;2023-02-02T05:41:10;20.00;48.00
909;DHT22;441;51.192;6.788;2023-02-02T05:43:37;19.90;48.00
909;DHT22;441;51.192;6.788;2023-02-02T05:46:04;19.90;48.00
909;DHT22;441;51.192;6.788;2023-02-02T05:48:30;19.90;48.10
909;DHT22;441;51.192;6.788;2023-02-02T05:51:01;19.90;48.00
909;DHT22;441;51.192;6.788;2023-02-02T05:53:30;19.90;48.00
909;DHT22;441;51.192;6.788;2023-02-02T05:55:57;19.90;48.10
909;DHT22;441;51.192;6.788;2023-02-02T05:58:25;19.90;48.00
909;DHT22;441;51.192;6.788;2023-02-02T06:00:52;19.90;47.90
909;DHT22;441;51.192;6.788;2023-02-02T06:03:19;20.00;47.60
909;DHT22;441;51.192;6.788;2023-02-02T06:05:46;20.10;47.60
909;DHT22;441;51.192;6.788;2023-02-02T06:08:13;20.10;48.10
909;DHT22;441;51.192;6.788;2023-02-02T06:10:42;20.10;47.80
909;DHT22;441;51.192;6.788;2023-02-02T06:13:08;20.20;48.40
909;DHT22;441;51.192;6.788;2023-02-02T06:15:35;20.20;49.70
909;DHT22;441;51.192;6.788;2023-02-02T06:18:03;20.20;50.50
909;DHT22;441;51.192;6.788;2023-02-02T06:20:31;20.20;51.70
909;DHT22;441;51.192;6.788;2023-02-02T06:22:58;20.20;52.40
909;DHT22;441;51.192;6.788;2023-02-02T06:25:25;20.40;53.00
909;DHT22;441;51.192;6.788;2023-02-02T06:27:55;20.50;52.70
909;DHT22;441;51.192;6.788;2023-02-02T06:30:22;20.60;52.10
909;DHT22;441;51.192;6.788;2023-02-02T06:32:49;20.70;51.60
909;DHT22;441;51.192;6.788;2023-02-02T06:35:16;20.60;50.90
909;DHT22;441;51.192;6.788;2023-02-02T06:37:43;20.70;50.40
909;DHT22;441;51.192;6.788;2023-02-02T06:40:11;20.70;50.00
909;DHT22;441;51.192;6.788;2023-02-02T06:42:38;20.70;49.70
909;DHT22;441;51.192;6.788;2023-02-02T06:45:08;20.70;49.40
909;DHT22;441;51.192;6.788;2023-02-02T06:47:35;20.70;49.10
909;DHT22;441;51.192;6.788;2023-02-02T06:50:01;20.70;48.90
909;DHT22;441;51.192;6.788;2023-02-02T06:52:28;20.70;48.70
909;DHT22;441;51.192;6.788;2023-02-02T06:54:55;20.80;48.50
909;DHT22;441;51.192;6.788;2023-02-02T06:57:22;20.80;48.80
909;DHT22;441;51.192;6.788;2023-02-02T06:59:49;20.70;48.00
909;DHT22;441;51.192;6.788;2023-02-02T07:02:18;20.70;47.90
909;DHT22;441;51.192;6.788;2023-02-02T07:04:45;20.70;47.70
909;DHT22;441;51.192;6.788;2023-02-02T07:07:11;20.80;47.70
909;DHT22;441;51.192;6.788;2023-02-02T07:09:38;20.80;47.60
909;DHT22;441;51.192;6.788;2023-02-02T07:12:05;20.70;47.40
909;DHT22;441;51.192;6.788;2023-02-02T07:14:32;20.80;47.40
909;DHT22;441;51.192;6.788;2023-02-02T07:16:59;20.80;47.20
909;DHT22;441;51.192;6.788;2023-02-02T07:19:27;20.70;47.00
909;DHT22;441;51.192;6.788;2023-02-02T07:21:54;20.80;47.00
909;DHT22;441;51.192;6.788;2023-02-02T07:24:21;20.80;47.00
909;DHT22;441;51.192;6.788;2023-02-02T07:26:48;20.80;46.90
909;DHT22;441;51.192;6.788;2023-02-02T07:29:15;20.80;46.80
909;DHT22;441;51.192;6.788;2023-02-02T07:31:41;20.80;46.70
909;DHT22;441;51.192;6.788;2023-02-02T07:34:08;20.80;46.60
909;DHT22;441;51.192;6.788;2023-02-02T07:36:36;20.90;46.60
909;DHT22;441;51.192;6.788;2023-02-02T07:39:04;20.90;46.50
909;DHT22;441;51.192;6.788;2023-02-02T07:41:33;20.90;46.50
909;DHT22;441;51.192;6.788;2023-02-02T07:44:00;20.90;46.40
909;DHT22;441;51.192;6.788;2023-02-02T07:46:27;20.90;46.40
909;DHT22;441;51.192;6.788;2023-02-02T07:48:55;20.90;46.30
909;DHT22;441;51.192;6.788;2023-02-02T07:51:23;21.00;46.30
909;DHT22;441;51.192;6.788;2023-02-02T07:53:53;20.90;46.20
909;DHT22;441;51.192;6.788;2023-02-02T07:56:24;21.00;46.20
909;DHT22;441;51.192;6.788;2023-02-02T07:58:52;21.00;46.10
909;DHT22;441;51.192;6.788;2023-02-02T08:01:19;21.00;46.10
909;DHT22;441;51.192;6.788;2023-02-02T08:03:47;21.00;46.00
909;DHT22;441;51.192;6.788;2023-02-02T08:06:17;21.00;45.90
909;DHT22;441;51.192;6.788;2023-02-02T08:08:44;21.00;45.80
909;DHT22;441;51.192;6.788;2023-02-02T08:11:14;20.90;45.70
909;DHT22;441;51.192;6.788;2023-02-02T08:13:41;20.90;45.70
909;DHT22;441;51.192;6.788;2023-02-02T08:16:09;20.90;45.70
909;DHT22;441;51.192;6.788;2023-02-02T08:18:37;20.90;45.60
909;DHT22;441;51.192;6.788;2023-02-02T08:21:05;20.90;45.60
909;DHT22;441;51.192;6.788;2023-02-02T08:23:33;20.90;45.50
909;DHT22;441;51.192;6.788;2023-02-02T08:26:09;20.90;45.50
909;DHT22;441;51.192;6.788;2023-02-02T08:28:38;20.90;45.50
909;DHT22;441;51.192;6.788;2023-02-02T08:31:06;20.80;45.40
909;DHT22;441;51.192;6.788;2023-02-02T08:33:34;20.90;45.50
909;DHT22;441;51.192;6.788;2023-02-02T08:36:01;20.90;45.50
909;DHT22;441;51.192;6.788;2023-02-02T08:38:27;20.80;45.40
909;DHT22;441;51.192;6.788;2023-02-02T08:40:54;20.80;45.40
909;DHT22;441;51.192;6.788;2023-02-02T08:43:22;20.80;45.30
909;DHT22;441;51.192;6.788;2023-02-02T08:45:50;20.90;45.40
909;DHT22;441;51.192;6.788;2023-02-02T08:48:18;20.90;45.40
909;DHT22;441;51.192;6.788;2023-02-02T08:50:51;20.90;45.40
909;DHT22;441;51.192;6.788;2023-02-02T08:53:18;20.90;45.40
909;DHT22;441;51.192;6.788;2023-02-02T08:55:45;21.00;45.50
909;DHT22;441;51.192;6.788;2023-02-02T08:58:12;21.00;45.40
909;DHT22;441;51.192;6.788;2023-02-02T09:00:39;21.00;45.40
909;DHT22;441;51.192;6.788;2023-02-02T09:03:08;21.00;45.30
909;DHT22;441;51.192;6.788;2023-02-02T09:05:34;21.10;45.40
909;DHT22;441;51.192;6.788;2023-02-02T09:08:03;21.10;45.30
909;DHT22;441;51.192;6.788;2023-02-02T09:10:33;21.10;45.30
909;DHT22;441;51.192;6.788;2023-02-02T09:13:00;21.10;45.20
909;DHT22;441;51.192;6.788;2023-02-02T09:15:27;21.10;45.20
909;DHT22;441;51.192;6.788;2023-02-02T09:17:54;21.20;45.20
909;DHT22;441;51.192;6.788;2023-02-02T09:20:22;21.20;45.20
909;DHT22;441;51.192;6.788;2023-02-02T09:22:48;21.20;45.10
909;DHT22;441;51.192;6.788;2023-02-02T09:25:15;21.20;45.10
909;DHT22;441;51.192;6.788;2023-02-02T09:27:42;21.20;45.10
909;DHT22;441;51.192;6.788;2023-02-02T09:30:10;21.20;45.10
909;DHT22;441;51.192;6.788;2023-02-02T09:32:37;21.20;45.10
909;DHT22;441;51.192;6.788;2023-02-02T09:35:04;21.10;45.00
909;DHT22;441;51.192;6.788;2023-02-02T09:37:34;21.10;45.00
909;DHT22;441;51.192;6.788;2023-02-02T09:40:01;21.10;45.00
909;DHT22;441;51.192;6.788;2023-02-02T09:45:38;21.10;44.90
909;DHT22;441;51.192;6.788;2023-02-02T09:48:19;21.10;44.90
909;DHT22;441;51.192;6.788;2023-02-02T09:50:51;21.10;44.90
909;DHT22;441;51.192;6.788;2023-02-02T09:53:25;21.00;44.80
909;DHT22;441;51.192;6.788;2023-02-02T09:55:56;21.10;44.90
909;DHT22;441;51.192;6.788;2023-02-02T09:58:26;21.00;44.80
909;DHT22;441;51.192;6.788;2023-02-02T10:00:59;21.00;44.80
909;DHT22;441;51.192;6.788;2023-02-02T10:03:31;20.90;44.80
909;DHT22;441;51.192;6.788;2023-02-02T10:06:03;20.90;44.80
909;DHT22;441;51.192;6.788;2023-02-02T10:08:36;20.90;44.80
909;DHT22;441;51.192;6.788;2023-02-02T10:11:25;20.90;45.40
909;DHT22;441;51.192;6.788;2023-02-02T10:13:56;20.90;44.90
909;DHT22;441;51.192;6.788;2023-02-02T10:16:24;21.00;44.90
909;DHT22;441;51.192;6.788;2023-02-02T10:18:55;21.00;44.90
909;DHT22;441;51.192;6.788;2023-02-02T10:21:27;21.00;44.90
909;DHT22;441;51.192;6.788;2023-02-02T10:24:01;21.10;44.90
909;DHT22;441;51.192;6.788;2023-02-02T10:26:35;21.10;44.90
909;DHT22;441;51.192;6.788;2023-02-02T10:29:11;21.10;44.90
909;DHT22;441;51.192;6.788;2023-02-02T10:31:50;21.20;45.00
909;DHT22;441;51.192;6.788;2023-02-02T10:34:23;21.20;45.00
909;DHT22;441;51.192;6.788;2023-02-02T10:37:00;21.20;44.90
909;DHT22;441;51.192;6.788;2023-02-02T10:39:40;21.20;44.90
909;DHT22;441;51.192;6.788;2023-02-02T10:42:16;21.20;44.90
909;DHT22;441;51.192;6.788;2023-02-02T10:44:48;21.30;44.90
909;DHT22;441;51.192;6.788;2023-02-02T10:47:21;21.20;44.90
909;DHT22;441;51.192;6.788;2023-02-02T10:49:57;21.20;44.80
909;DHT22;441;51.192;6.788;2023-02-02T10:52:31;21.30;44.80
909;DHT22;441;51.192;6.788;2023-02-02T10:55:04;21.30;44.80
909;DHT22;441;51.192;6.788;2023-02-02T10:57:45;21.30;44.70
909;DHT22;441;51.192;6.788;2023-02-02T11:00:18;21.30;44.70
909;DHT22;441;51.192;6.788;2023-02-02T11:02:46;21.30;44.60
909;DHT22;441;51.192;6.788;2023-02-02T11:05:20;21.30;44.70
909;DHT22;441;51.192;6.788;2023-02-02T11:08:15;21.30;44.60
909;DHT22;441;51.192;6.788;2023-02-02T11:10:45;21.20;44.60
909;DHT22;441;51.192;6.788;2023-02-02T11:13:24;21.20;44.60
909;DHT22;441;51.192;6.788;2023-02-02T11:16:21;21.20;44.60
909;DHT22;441;51.192;6.788;2023-02-02T11:18:48;21.20;44.60
909;DHT22;441;51.192;6.788;2023-02-02T11:21:18;21.20;44.60
909;DHT22;441;51.192;6.788;2023-02-02T11:23:58;21.20;44.60
909;DHT22;441;51.192;6.788;2023-02-02T11:26:41;21.10;44.50
909;DHT22;441;51.192;6.788;2023-02-02T11:29:17;21.10;44.50
909;DHT22;441;51.192;6.788;2023-02-02T11:31:46;21.10;44.60
909;DHT22;441;51.192;6.788;2023-02-02T11:34:18;21.10;44.60
909;DHT22;441;51.192;6.788;2023-02-02T11:37:10;21.10;44.60
909;DHT22;441;51.192;6.788;2023-02-02T11:39:38;21.00;44.60
909;DHT22;441;51.192;6.788;2023-02-02T11:42:11;21.00;44.60
909;DHT22;441;51.192;6.788;2023-02-02T11:44:39;21.00;44.60
909;DHT22;441;51.192;6.788;2023-02-02T11:47:18;21.00;44.60
909;DHT22;441;51.192;6.788;2023-02-02T11:49:46;21.00;44.60
909;DHT22;441;51.192;6.788;2023-02-02T11:52:16;21.10;44.70
909;DHT22;441;51.192;6.788;2023-02-02T11:54:46;21.10;44.70
909;DHT22;441;51.192;6.788;2023-02-02T11:57:18;21.20;44.70
909;DHT22;441;51.192;6.788;2023-02-02T11:59:46;21.20;44.70
909;DHT22;441;51.192;6.788;2023-02-02T12:02:28;21.20;44.70
909;DHT22;441;51.192;6.788;2023-02-02T12:05:13;21.20;44.70
909;DHT22;441;51.192;6.788;2023-02-02T12:07:41;21.30;44.70
909;DHT22;441;51.192;6.788;2023-02-02T12:10:15;21.30;44.70
909;DHT22;441;51.192;6.788;2023-02-02T12:12:54;21.30;44.70
909;DHT22;441;51.192;6.788;2023-02-02T12:15:31;21.30;44.70
909;DHT22;441;51.192;6.788;2023-02-02T12:18:07;21.30;44.60
909;DHT22;441;51.192;6.788;2023-02-02T12:20:44;21.30;44.60
909;DHT22;441;51.192;6.788;2023-02-02T12:23:26;21.40;44.60
909;DHT22;441;51.192;6.788;2023-02-02T12:26:14;21.40;44.60
909;DHT22;441;51.192;6.788;2023-02-02T12:29:03;21.40;44.60
909;DHT22;441;51.192;6.788;2023-02-02T12:31:39;21.30;44.50
909;DHT22;441;51.192;6.788;2023-02-02T12:34:17;21.30;44.50
909;DHT22;441;51.192;6.788;2023-02-02T12:36:50;21.40;44.50
909;DHT22;441;51.192;6.788;2023-02-02T12:39:26;21.30;44.40
909;DHT22;441;51.192;6.788;2023-02-02T12:42:12;21.40;44.50
909;DHT22;441;51.192;6.788;2023-02-02T12:44:53;21.30;44.40
909;DHT22;441;51.192;6.788;2023-02-02T12:47:27;21.30;44.40
909;DHT22;441;51.192;6.788;2023-02-02T12:50:16;21.30;44.40
909;DHT22;441;51.192;6.788;2023-02-02T12:52:58;21.30;44.40
909;DHT22;441;51.192;6.788;2023-02-02T12:55:35;21.20;44.40
909;DHT22;441;51.192;6.788;2023-02-02T12:58:11;21.20;44.40
909;DHT22;441;51.192;6.788;2023-02-02T13:01:08;21.20;44.40
909;DHT22;441;51.192;6.788;2023-02-02T13:03:54;21.20;44.40
909;DHT22;441;51.192;6.788;2023-02-02T13:07:06;21.20;44.40
909;DHT22;441;51.192;6.788;2023-02-02T13:09:39;21.10;44.40
909;DHT22;441;51.192;6.788;2023-02-02T13:12:13;21.10;44.40
909;DHT22;441;51.192;6.788;2023-02-02T13:14:44;21.10;44.40
909;DHT22;441;51.192;6.788;2023-02-02T13:17:17;21.10;44.50
909;DHT22;441;51.192;6.788;2023-02-02T13:19:49;21.20;44.50
909;DHT22;441;51.192;6.788;2023-02-02T13:22:21;21.20;44.60
909;DHT22;441;51.192;6.788;2023-02-02T13:24:53;21.20;44.50
909;DHT22;441;51.192;6.788;2023-02-02T13:27:21;21.20;44.50
909;DHT22;441;51.192;6.788;2023-02-02T13:29:52;21.20;44.50
909;DHT22;441;51.192;6.788;2023-02-02T13:32:26;21.30;44.60
909;DHT22;441;51.192;6.788;2023-02-02T13:34:59;21.30;44.60
909;DHT22;441;51.192;6.788;2023-02-02T13:37:31;21.30;44.60
909;DHT22;441;51.192;6.788;2023-02-02T13:40:11;21.40;44.60
909;DHT22;441;51.192;6.788;2023-02-02T13:42:44;21.40;44.60
909;DHT22;441;51.192;6.788;2023-02-02T13:45:35;21.40;44.60
909;DHT22;441;51.192;6.788;2023-02-02T13:48:13;21.40;44.50
909;DHT22;441;51.192;6.788;2023-02-02T13:51:00;21.40;44.50
909;DHT22;441;51.192;6.788;2023-02-02T13:53:46;21.40;44.50
909;DHT22;441;51.192;6.788;2023-02-02T13:56:28;21.40;44.50
909;DHT22;441;51.192;6.788;2023-02-02T13:59:07;21.40;44.40
909;DHT22;441;51.192;6.788;2023-02-02T14:01:36;21.40;44.50
909;DHT22;441;51.192;6.788;2023-02-02T14:04:04;21.40;44.40
909;DHT22;441;51.192;6.788;2023-02-02T14:06:52;21.40;44.40
909;DHT22;441;51.192;6.788;2023-02-02T14:09:23;21.40;44.40
909;DHT22;441;51.192;6.788;2023-02-02T14:11:55;21.40;44.50
909;DHT22;441;51.192;6.788;2023-02-02T14:14:23;21.40;44.40
909;DHT22;441;51.192;6.788;2023-02-02T14:17:00;21.40;44.40
909;DHT22;441;51.192;6.788;2023-02-02T14:19:48;21.40;44.40
909;DHT22;441;51.192;6.788;2023-02-02T14:25:03;21.30;44.40
909;DHT22;441;51.192;6.788;2023-02-02T14:27:58;21.30;44.40
909;DHT22;441;51.192;6.788;2023-02-02T14:30:31;21.30;44.40
909;DHT22;441;51.192;6.788;2023-02-02T14:33:24;21.30;44.40
909;DHT22;441;51.192;6.788;2023-02-02T14:35:59;21.20;44.30
909;DHT22;441;51.192;6.788;2023-02-02T14:38:51;21.20;44.30
909;DHT22;441;51.192;6.788;2023-02-02T14:41:28;21.20;44.40
909;DHT22;441;51.192;6.788;2023-02-02T14:44:14;21.20;44.40
909;DHT22;441;51.192;6.788;2023-02-02T14:46:41;21.10;44.40
909;DHT22;441;51.192;6.788;2023-02-02T14:49:21;21.10;44.40
909;DHT22;441;51.192;6.788;2023-02-02T14:51:56;21.10;44.40
909;DHT22;441;51.192;6.788;2023-02-02T14:54:29;21.10;44.40
909;DHT22;441;51.192;6.788;2023-02-02T14:57:00;21.10;44.50
909;DHT22;441;51.192;6.788;2023-02-02T14:59:31;21.00;45.00
909;DHT22;441;51.192;6.788;2023-02-02T15:02:17;21.10;44.50
909;DHT22;441;51.192;6.788;2023-02-02T15:04:46;21.10;44.50
909;DHT22;441;51.192;6.788;2023-02-02T15:13:55;21.20;44.60
909;DHT22;441;51.192;6.788;2023-02-02T15:16:26;21.20;44.50
909;DHT22;441;51.192;6.788;2023-02-02T15:19:07;21.20;44.80
909;DHT22;441;51.192;6.788;2023-02-02T15:21:41;20.90;45.90
909;DHT22;441;51.192;6.788;2023-02-02T15:24:20;20.80;46.30
909;DHT22;441;51.192;6.788;2023-02-02T15:26:48;20.90;46.50
909;DHT22;441;51.192;6.788;2023-02-02T15:29:27;20.80;46.50
909;DHT22;441;51.192;6.788;2023-02-02T15:31:57;20.90;46.60
909;DHT22;441;51.192;6.788;2023-02-02T15:34:33;20.90;46.60
909;DHT22;441;51.192;6.788;2023-02-02T15:37:03;20.90;46.50
909;DHT22;441;51.192;6.788;2023-02-02T15:39:33;21.10;46.50
909;DHT22;441;51.192;6.788;2023-02-02T15:42:05;21.20;46.30
909;DHT22;441;51.192;6.788;2023-02-02T15:44:52;21.40;46.10
909;DHT22;441;51.192;6.788;2023-02-02T15:47:24;21.50;45.90
909;DHT22;441;51.192;6.788;2023-02-02T15:49:54;21.60;45.90
909;DHT22;441;51.192;6.788;2023-02-02T15:52:25;21.60;45.70
909;DHT22;441;51.192;6.788;2023-02-02T15:54:53;21.70;45.70
909;DHT22;441;51.192;6.788;2023-02-02T15:57:25;21.80;45.60
909;DHT22;441;51.192;6.788;2023-02-02T15:59:53;21.80;45.50
909;DHT22;441;51.192;6.788;2023-02-02T16:02:27;21.80;45.30
909;DHT22;441;51.192;6.788;2023-02-02T16:04:55;21.60;45.40
909;DHT22;441;51.192;6.788;2023-02-02T16:07:27;21.60;45.60
909;DHT22;441;51.192;6.788;2023-02-02T16:09:54;21.60;46.00
909;DHT22;441;51.192;6.788;2023-02-02T16:12:22;21.70;45.80
909;DHT22;441;51.192;6.788;2023-02-02T16:14:52;21.60;45.80
909;DHT22;441;51.192;6.788;2023-02-02T16:17:21;21.60;45.80
909;DHT22;441;51.192;6.788;2023-02-02T16:19:50;21.50;45.80
909;DHT22;441;51.192;6.788;2023-02-02T16:22:23;21.50;45.90
909;DHT22;441;51.192;6.788;2023-02-02T16:24:52;21.60;45.80
909;DHT22;441;51.192;6.788;2023-02-02T16:27:22;21.50;46.00
909;DHT22;441;51.192;6.788;2023-02-02T16:29:52;21.40;46.10
909;DHT22;441;51.192;6.788;2023-02-02T16:32:29;21.40;46.30
909;DHT22;441;51.192;6.788;2023-02-02T16:34:56;21.40;46.40
909;DHT22;441;51.192;6.788;2023-02-02T16:37:25;21.30;46.30
909;DHT22;441;51.192;6.788;2023-02-02T16:39:53;21.30;46.20
909;DHT22;441;51.192;6.788;2023-02-02T16:42:25;21.30;46.20
909;DHT22;441;51.192;6.788;2023-02-02T16:44:54;21.30;46.20
909;DHT22;441;51.192;6.788;2023-02-02T16:47:33;21.20;46.20
909;DHT22;441;51.192;6.788;2023-02-02T16:50:26;21.20;46.30
909;DHT22;441;51.192;6.788;2023-02-02T16:52:56;21.30;46.60
909;DHT22;441;51.192;6.788;2023-02-02T16:55:23;21.30;46.90
909;DHT22;441;51.192;6.788;2023-02-02T16:57:51;21.50;47.40
909;DHT22;441;51.192;6.788;2023-02-02T17:00:22;21.60;47.40
909;DHT22;441;51.192;6.788;2023-02-02T17:02:51;21.70;47.60
909;DHT22;441;51.192;6.788;2023-02-02T17:05:21;21.70;47.60
909;DHT22;441;51.192;6.788;2023-02-02T17:07:53;21.80;47.40
909;DHT22;441;51.192;6.788;2023-02-02T17:10:26;21.80;47.10
909;DHT22;441;51.192;6.788;2023-02-02T17:12:55;21.80;47.00
909;DHT22;441;51.192;6.788;2023-02-02T17:15:30;21.90;46.90
909;DHT22;441;51.192;6.788;2023-02-02T17:17:59;21.90;46.80